createdAt,value
2023-02-22T00:02:25.168Z,51.13
2023-02-22T00:04:53.484Z,49.17
2023-02-22T00:07:23.781Z,48.30
2023-02-22T00:09:52.114Z,47.07
2023-02-22T00:12:20.683Z,52.80
2023-02-22T00:14:49.242Z,53.90
2023-02-22T00:17:17.521Z,58.67
2023-02-22T00:19:45.718Z,51.60
2023-02-22T00:22:14.030Z,49.63
2023-02-22T00:24:43.610Z,55.00
2023-02-22T00:27:11.997Z,64.07
2023-02-22T00:29:45.266Z,48.87
2023-02-22T00:32:13.580Z,53.90
2023-02-22T00:34:43.680Z,58.40
2023-02-22T00:37:12.466Z,52.17
2023-02-22T00:39:41.184Z,51.33
2023-02-22T00:42:10.924Z,58.87
2023-02-22T00:44:39.237Z,52.27
2023-02-22T00:47:08.708Z,58.73
2023-02-22T00:49:38.135Z,52.07
2023-02-22T00:52:06.780Z,52.93
2023-02-22T00:54:35.095Z,53.63
2023-02-22T00:57:05.028Z,59.43
2023-02-22T00:59:34.681Z,54.00
2023-02-22T01:02:03.198Z,57.37
2023-02-22T01:04:31.624Z,58.57
2023-02-22T01:07:00.620Z,51.73
2023-02-22T01:09:32.783Z,56.87
2023-02-22T01:12:01.043Z,56.10
2023-02-22T01:14:29.923Z,53.43
2023-02-22T01:16:59.624Z,56.00
2023-02-22T01:19:28.100Z,51.53
2023-02-22T01:21:56.788Z,51.40
2023-02-22T01:24:25.621Z,58.43
2023-02-22T01:26:56.140Z,54.67
2023-02-22T01:29:24.507Z,57.57
2023-02-22T01:31:55.060Z,61.93
2023-02-22T01:34:26.184Z,51.00
2023-02-22T01:36:54.469Z,51.90
2023-02-22T01:39:23.020Z,52.93
2023-02-22T01:41:53.699Z,53.63
2023-02-22T01:44:28.611Z,51.63
2023-02-22T01:46:57.670Z,46.73
2023-02-22T01:49:30.826Z,53.23
2023-02-22T01:52:04.603Z,46.20
2023-02-22T01:54:36.131Z,48.73
2023-02-22T01:57:09.802Z,41.70
2023-02-22T01:59:41.342Z,47.77
2023-02-22T02:02:09.802Z,54.70
2023-02-22T02:04:42.650Z,47.47
2023-02-22T02:07:14.553Z,54.20
2023-02-22T02:09:55.664Z,53.60
2023-02-22T02:12:25.216Z,53.90
2023-02-22T02:14:54.208Z,62.73
2023-02-22T02:17:24.125Z,60.40
2023-02-22T02:20:13.897Z,50.87
2023-02-22T02:22:48.273Z,56.97
2023-02-22T02:25:49.317Z,49.70
2023-02-22T02:29:02.554Z,50.87
2023-02-22T02:31:58.240Z,51.23
2023-02-22T02:34:33.438Z,52.03
2023-02-22T02:37:10.112Z,44.70
2023-02-22T02:39:44.556Z,52.70
2023-02-22T02:42:18.372Z,46.47
2023-02-22T02:44:49.854Z,49.47
2023-02-22T02:47:24.923Z,43.50
2023-02-22T02:49:57.426Z,43.67
2023-02-22T02:52:28.586Z,41.73
2023-02-22T02:54:57.908Z,43.23
2023-02-22T02:57:26.514Z,45.13
2023-02-22T02:59:55.108Z,39.10
2023-02-22T03:02:40.308Z,35.43
2023-02-22T03:05:29.347Z,40.10
2023-02-22T03:08:04.587Z,40.70
2023-02-22T03:10:47.615Z,40.83
2023-02-22T03:13:21.095Z,38.93
2023-02-22T03:15:58.069Z,42.50
2023-02-22T03:18:35.700Z,35.53
2023-02-22T03:21:16.819Z,34.03
2023-02-22T03:23:50.325Z,33.23
2023-02-22T03:26:24.483Z,34.80
2023-02-22T03:28:57.900Z,32.27
2023-02-22T03:31:29.806Z,36.70
2023-02-22T03:34:03.825Z,31.03
2023-02-22T03:36:39.285Z,28.10
2023-02-22T03:39:12.276Z,32.97
2023-02-22T03:41:41.599Z,32.40
2023-02-22T03:44:14.541Z,32.83
2023-02-22T03:46:46.849Z,38.67
2023-02-22T03:49:26.395Z,33.20
2023-02-22T03:51:55.186Z,32.43
2023-02-22T03:54:27.451Z,32.73
2023-02-22T03:57:06.320Z,32.80
2023-02-22T03:59:39.181Z,29.97
2023-02-22T04:02:08.177Z,28.00
2023-02-22T04:04:37.917Z,29.60
2023-02-22T04:07:06.518Z,29.63
2023-02-22T04:09:34.905Z,27.70
2023-02-22T04:12:04.209Z,20.50
2023-02-22T04:14:38.364Z,23.97
2023-02-22T04:17:06.719Z,27.03
2023-02-22T04:19:34.962Z,23.20
2023-02-22T04:22:04.605Z,21.37
2023-02-22T04:24:35.752Z,20.70
2023-02-22T04:27:07.196Z,23.30
2023-02-22T04:29:38.783Z,22.73
2023-02-22T04:32:08.936Z,22.10
2023-02-22T04:34:37.505Z,23.60
2023-02-22T04:37:07.727Z,25.97
2023-02-22T04:39:36.872Z,22.30
2023-02-22T04:42:06.692Z,20.03
2023-02-22T04:44:36.066Z,19.37
2023-02-22T04:47:06.150Z,20.23
2023-02-22T04:49:36.007Z,19.00
2023-02-22T04:52:07.212Z,42.10
2023-02-22T04:54:38.115Z,58.67
2023-02-22T04:57:06.453Z,40.90
2023-02-22T04:59:35.583Z,46.97
2023-02-22T05:02:04.134Z,44.90
2023-02-22T05:04:32.452Z,29.83
2023-02-22T05:07:00.816Z,28.53
2023-02-22T05:09:30.437Z,24.07
2023-02-22T05:11:58.762Z,22.60
2023-02-22T05:14:27.712Z,25.37
2023-02-22T05:16:56.417Z,26.47
2023-02-22T05:19:25.454Z,28.73
2023-02-22T05:21:53.760Z,25.27
2023-02-22T05:24:22.012Z,22.43
2023-02-22T05:26:53.289Z,23.80
2023-02-22T05:29:21.718Z,22.20
2023-02-22T05:31:50.072Z,22.87
2023-02-22T05:34:18.708Z,23.53
2023-02-22T05:36:47.558Z,26.23
2023-02-22T05:39:15.857Z,25.03
2023-02-22T05:41:44.175Z,26.43
2023-02-22T05:44:13.711Z,25.93
2023-02-22T05:46:42.085Z,28.90
2023-02-22T05:49:10.367Z,25.47
2023-02-22T05:51:38.612Z,124.60
2023-02-22T05:54:07.062Z,55.27
2023-02-22T05:56:36.539Z,48.63
2023-02-22T05:59:05.006Z,31.20
2023-02-22T06:01:34.836Z,24.00
2023-02-22T06:04:03.233Z,27.97
2023-02-22T06:06:31.561Z,26.30
2023-02-22T06:09:00.046Z,23.67
2023-02-22T06:11:28.565Z,24.90
2023-02-22T06:13:56.995Z,26.10
2023-02-22T06:16:25.496Z,25.20
2023-02-22T06:18:55.202Z,27.30
2023-02-22T06:21:23.434Z,33.70
2023-02-22T06:23:51.789Z,27.90
2023-02-22T06:26:20.831Z,29.17
2023-02-22T06:28:49.474Z,28.90
2023-02-22T06:31:18.144Z,31.10
2023-02-22T06:33:47.143Z,25.87
2023-02-22T06:36:16.841Z,26.67
2023-02-22T06:38:45.123Z,27.67
2023-02-22T06:41:15.711Z,27.80
2023-02-22T06:43:44.198Z,29.23
2023-02-22T06:46:13.967Z,24.17
2023-02-22T06:48:42.476Z,24.63
2023-02-22T06:51:11.152Z,26.63
2023-02-22T06:53:40.927Z,22.60
2023-02-22T06:56:09.354Z,25.40
2023-02-22T06:58:37.619Z,26.80
2023-02-22T07:01:07.976Z,27.73
2023-02-22T07:03:36.877Z,27.93
2023-02-22T07:06:06.066Z,69.10
2023-02-22T07:08:34.573Z,118.50
2023-02-22T07:11:04.982Z,62.23
2023-02-22T07:13:33.373Z,47.23
2023-02-22T07:16:02.186Z,43.23
2023-02-22T07:18:30.997Z,35.00
2023-02-22T07:20:59.677Z,33.67
2023-02-22T07:23:28.218Z,27.20
2023-02-22T07:25:56.759Z,28.00
2023-02-22T07:28:26.434Z,23.50
2023-02-22T07:30:54.850Z,28.53
2023-02-22T07:33:23.316Z,27.50
2023-02-22T07:35:52.557Z,24.93
2023-02-22T07:38:21.490Z,26.30
2023-02-22T07:40:50.259Z,23.10
2023-02-22T07:43:21.279Z,27.03
2023-02-22T07:45:52.582Z,28.80
2023-02-22T07:48:22.675Z,24.00
2023-02-22T07:50:51.554Z,24.27
2023-02-22T07:53:21.802Z,28.07
2023-02-22T07:55:51.208Z,26.57
2023-02-22T07:58:21.583Z,24.90
2023-02-22T08:00:51.283Z,21.77
2023-02-22T08:03:21.873Z,24.90
2023-02-22T08:05:52.324Z,28.10
2023-02-22T08:08:20.935Z,25.27
2023-02-22T08:10:50.207Z,26.13
2023-02-22T08:13:19.434Z,25.73
2023-02-22T08:15:48.452Z,24.00
2023-02-22T08:18:20.564Z,25.63
2023-02-22T08:20:51.949Z,28.23
2023-02-22T08:23:23.107Z,25.20
2023-02-22T08:25:51.482Z,20.80
2023-02-22T08:28:23.539Z,25.60
2023-02-22T08:30:52.947Z,22.50
2023-02-22T08:33:23.542Z,22.73
2023-02-22T08:35:52.149Z,24.43
2023-02-22T08:38:22.824Z,20.33
2023-02-22T08:40:52.164Z,18.80
2023-02-22T08:43:21.964Z,21.93
2023-02-22T08:45:51.753Z,22.30
2023-02-22T08:48:22.415Z,21.97
2023-02-22T08:50:51.070Z,18.57
2023-02-22T08:53:19.425Z,21.63
2023-02-22T08:55:47.996Z,16.13
2023-02-22T08:58:16.338Z,18.37
2023-02-22T09:00:45.193Z,20.03
2023-02-22T09:03:15.717Z,16.30
2023-02-22T09:05:46.006Z,15.00
2023-02-22T09:08:14.791Z,15.97
2023-02-22T09:10:43.181Z,16.23
2023-02-22T09:13:11.608Z,15.90
2023-02-22T09:15:40.876Z,12.73
2023-02-22T09:18:11.124Z,17.70
2023-02-22T09:20:40.001Z,12.73
2023-02-22T09:23:10.530Z,16.30
2023-02-22T09:25:40.840Z,15.80
2023-02-22T09:28:09.633Z,14.40
2023-02-22T09:30:38.758Z,14.20
2023-02-22T09:33:10.908Z,13.63
2023-02-22T09:35:42.516Z,12.40
2023-02-22T09:38:12.830Z,14.30
2023-02-22T09:40:45.950Z,13.23
2023-02-22T09:43:32.284Z,14.33
2023-02-22T09:46:12.248Z,14.80
2023-02-22T09:49:00.563Z,15.37
2023-02-22T09:51:35.878Z,14.40
2023-02-22T09:54:14.514Z,13.57
2023-02-22T09:56:46.868Z,14.33
2023-02-22T09:59:21.712Z,14.50
2023-02-22T10:01:54.980Z,13.87
2023-02-22T10:04:30.488Z,11.63
2023-02-22T10:07:07.886Z,13.57
2023-02-22T10:09:42.832Z,11.80
2023-02-22T10:12:16.188Z,13.30
2023-02-22T10:15:06.033Z,12.20
2023-02-22T10:17:41.394Z,9.63
2023-02-22T10:20:24.061Z,10.17
2023-02-22T10:23:08.587Z,13.20
2023-02-22T10:25:40.329Z,11.97
2023-02-22T10:28:14.532Z,9.90
2023-02-22T10:30:49.351Z,10.77
2023-02-22T10:33:22.653Z,11.27
2023-02-22T10:35:53.683Z,9.80
2023-02-22T10:38:24.385Z,14.00
2023-02-22T10:40:59.195Z,10.97
2023-02-22T10:43:27.681Z,9.10
2023-02-22T10:46:01.422Z,9.10
2023-02-22T10:48:33.087Z,9.20
2023-02-22T10:51:03.909Z,11.13
2023-02-22T10:53:36.159Z,8.20
2023-02-22T10:56:15.996Z,9.73
2023-02-22T10:58:48.080Z,9.77
2023-02-22T11:01:27.267Z,8.40
2023-02-22T11:04:00.817Z,9.23
2023-02-22T11:06:30.233Z,10.67
2023-02-22T11:09:17.984Z,7.67
2023-02-22T11:11:49.797Z,10.50
2023-02-22T11:14:27.606Z,8.33
2023-02-22T11:16:58.286Z,7.83
2023-02-22T11:19:29.171Z,6.67
2023-02-22T11:21:59.802Z,6.20
2023-02-22T11:24:43.612Z,6.50
2023-02-22T11:27:28.462Z,6.73
2023-02-22T11:30:00.189Z,6.93
2023-02-22T11:32:28.651Z,6.70
2023-02-22T11:35:35.443Z,6.90
2023-02-22T11:38:22.190Z,6.50
2023-02-22T11:41:07.947Z,6.80
2023-02-22T11:43:38.758Z,7.03
2023-02-22T11:46:10.622Z,7.63
2023-02-22T11:48:44.913Z,5.53
2023-02-22T11:51:25.268Z,5.80
2023-02-22T11:54:28.733Z,5.93
2023-02-22T11:57:16.295Z,7.60
2023-02-22T11:59:58.684Z,7.20
2023-02-22T12:02:51.928Z,5.83
2023-02-22T12:05:37.430Z,8.90
2023-02-22T12:08:20.521Z,6.70
2023-02-22T12:10:58.515Z,6.37
2023-02-22T12:13:38.210Z,6.37
2023-02-22T12:16:19.841Z,7.10
2023-02-22T12:19:05.422Z,7.40
2023-02-22T12:21:37.501Z,7.67
2023-02-22T12:24:08.440Z,8.20
2023-02-22T12:26:41.309Z,8.40
2023-02-22T12:29:19.483Z,7.83
2023-02-22T12:31:53.339Z,8.30
2023-02-22T12:34:29.145Z,8.63
2023-02-22T12:37:04.778Z,8.30
2023-02-22T12:39:52.835Z,7.43
2023-02-22T12:42:29.360Z,7.20
2023-02-22T12:45:07.861Z,7.03
2023-02-22T12:47:45.966Z,5.73
2023-02-22T12:50:20.835Z,5.10
2023-02-22T12:52:54.414Z,5.67
2023-02-22T12:55:26.020Z,5.80
2023-02-22T12:58:00.928Z,6.60
2023-02-22T13:00:42.935Z,6.37
2023-02-22T13:03:30.190Z,10.37
2023-02-22T13:06:10.498Z,17.97
2023-02-22T13:08:47.213Z,20.60
2023-02-22T13:11:23.449Z,20.07
2023-02-22T13:14:05.727Z,15.87
2023-02-22T13:16:43.192Z,14.60
2023-02-22T13:19:25.241Z,11.97
2023-02-22T13:21:58.707Z,11.17
2023-02-22T13:24:31.072Z,11.90
2023-02-22T13:27:03.218Z,12.63
2023-02-22T13:29:35.697Z,9.30
2023-02-22T13:32:21.226Z,8.93
2023-02-22T13:35:11.416Z,11.33
2023-02-22T13:37:58.464Z,6.67
2023-02-22T13:40:57.558Z,7.80
2023-02-22T13:43:55.287Z,7.20
2023-02-22T13:46:46.952Z,6.43
2023-02-22T13:49:48.836Z,6.77
2023-02-22T13:52:21.852Z,24.70
2023-02-22T13:54:54.547Z,34.20
2023-02-22T13:57:25.915Z,29.67
2023-02-22T14:00:20.973Z,25.43
2023-02-22T14:03:02.189Z,19.73
2023-02-22T14:05:52.310Z,17.23
2023-02-22T14:08:49.089Z,15.27
2023-02-22T14:11:56.952Z,11.03
2023-02-22T14:14:25.999Z,10.87
2023-02-22T14:17:26.451Z,11.30
2023-02-22T14:20:35.237Z,9.07
2023-02-22T14:23:30.894Z,8.10
2023-02-22T14:26:12.180Z,7.00
2023-02-22T14:28:48.723Z,8.20
2023-02-22T14:31:34.433Z,10.43
2023-02-22T14:34:08.321Z,8.80
2023-02-22T14:36:50.878Z,7.77
2023-02-22T14:39:25.529Z,7.60
2023-02-22T14:42:01.514Z,8.27
2023-02-22T14:44:35.961Z,7.97
2023-02-22T14:47:07.284Z,7.77
2023-02-22T14:49:42.306Z,10.47
2023-02-22T14:52:22.471Z,8.27
2023-02-22T14:55:04.428Z,7.73
2023-02-22T14:57:43.433Z,17.90
2023-02-22T15:00:22.798Z,18.40
2023-02-22T15:02:57.294Z,12.23
2023-02-22T15:05:30.039Z,10.67
2023-02-22T15:08:01.158Z,9.57
2023-02-22T15:10:31.752Z,9.73
2023-02-22T15:13:09.967Z,8.33
2023-02-22T15:15:40.878Z,10.87
2023-02-22T15:18:20.396Z,8.57
2023-02-22T15:20:55.935Z,9.00
2023-02-22T15:23:30.276Z,12.63
2023-02-22T15:25:59.048Z,12.77
2023-02-22T15:28:32.038Z,7.40
2023-02-22T15:31:24.073Z,10.90
2023-02-22T15:33:54.765Z,7.80
2023-02-22T15:36:27.635Z,10.30
2023-02-22T15:38:56.917Z,10.93
2023-02-22T15:41:29.932Z,8.30
2023-02-22T15:44:17.863Z,9.07
2023-02-22T15:46:54.370Z,10.00
2023-02-22T15:49:24.695Z,8.93
2023-02-22T15:52:15.738Z,10.03
2023-02-22T15:54:48.284Z,8.80
2023-02-22T15:57:18.787Z,9.80
2023-02-22T15:59:53.062Z,10.53
2023-02-22T16:02:34.197Z,8.67
2023-02-22T16:05:06.814Z,9.27
2023-02-22T16:07:41.989Z,9.90
2023-02-22T16:10:22.691Z,9.83
2023-02-22T16:12:52.631Z,9.47
2023-02-22T16:15:22.421Z,24.80
2023-02-22T16:18:01.552Z,28.70
2023-02-22T16:20:33.608Z,20.00
2023-02-22T16:23:02.161Z,18.27
2023-02-22T16:25:35.806Z,12.03
2023-02-22T16:28:25.302Z,12.03
2023-02-22T16:30:59.780Z,11.87
2023-02-22T16:33:29.973Z,11.57
2023-02-22T16:35:58.233Z,9.60
2023-02-22T16:38:27.538Z,13.67
2023-02-22T16:40:58.503Z,11.93
2023-02-22T16:43:29.582Z,10.70
2023-02-22T16:46:01.623Z,24.20
2023-02-22T16:48:32.638Z,28.80
2023-02-22T16:51:03.536Z,21.23
2023-02-22T16:53:33.903Z,13.93
2023-02-22T16:56:05.137Z,13.70
2023-02-22T16:58:37.801Z,13.57
2023-02-22T17:01:07.797Z,11.10
2023-02-22T17:03:36.435Z,13.63
2023-02-22T17:06:05.232Z,11.77
2023-02-22T17:08:33.602Z,13.93
2023-02-22T17:11:01.936Z,11.83
2023-02-22T17:13:30.636Z,12.70
2023-02-22T17:15:59.043Z,13.13
2023-02-22T17:18:34.028Z,9.60
2023-02-22T17:21:03.438Z,9.53
2023-02-22T17:23:31.851Z,9.43
2023-02-22T17:26:02.246Z,11.50
2023-02-22T17:28:31.743Z,12.60
2023-02-22T17:31:01.938Z,14.23
2023-02-22T17:33:36.626Z,12.27
2023-02-22T17:36:06.363Z,16.27
2023-02-22T17:38:34.851Z,11.43
2023-02-22T17:41:03.719Z,13.90
2023-02-22T17:43:32.084Z,14.80
2023-02-22T17:46:00.583Z,13.73
2023-02-22T17:48:28.910Z,18.17
2023-02-22T17:50:58.470Z,13.73
2023-02-22T17:53:26.771Z,18.63
2023-02-22T17:55:55.482Z,17.20
2023-02-22T17:58:25.730Z,16.20
2023-02-22T18:00:59.104Z,14.87
2023-02-22T18:03:28.541Z,18.10
2023-02-22T18:06:00.162Z,18.67
2023-02-22T18:08:31.194Z,27.00
2023-02-22T18:11:02.068Z,22.47
2023-02-22T18:13:31.671Z,19.40
2023-02-22T18:16:00.664Z,15.67
2023-02-22T18:18:29.537Z,16.60
2023-02-22T18:21:00.298Z,19.03
2023-02-22T18:23:30.008Z,17.90
2023-02-22T18:26:10.567Z,17.23
2023-02-22T18:28:40.276Z,16.97
2023-02-22T18:31:09.591Z,16.17
2023-02-22T18:33:38.025Z,17.80
2023-02-22T18:36:11.392Z,17.43
2023-02-22T18:38:43.131Z,15.90
2023-02-22T18:41:13.228Z,19.10
2023-02-22T18:43:42.663Z,16.53
2023-02-22T18:46:13.035Z,15.27
2023-02-22T18:48:42.287Z,15.57
2023-02-22T18:51:14.582Z,15.47
2023-02-22T18:53:47.565Z,16.53
2023-02-22T18:56:21.745Z,28.33
2023-02-22T18:58:54.376Z,28.63
2023-02-22T19:01:23.138Z,23.00
2023-02-22T19:03:52.731Z,19.73
2023-02-22T19:06:23.055Z,19.33
2023-02-22T19:08:51.922Z,15.67
2023-02-22T19:11:23.259Z,19.47
2023-02-22T19:13:54.064Z,19.60
2023-02-22T19:16:24.672Z,15.80
2023-02-22T19:18:57.561Z,16.50
2023-02-22T19:21:29.041Z,16.77
2023-02-22T19:24:02.098Z,14.57
2023-02-22T19:26:30.870Z,14.53
2023-02-22T19:29:04.810Z,16.90
2023-02-22T19:31:34.835Z,16.00
2023-02-22T19:34:08.710Z,15.70
2023-02-22T19:36:41.338Z,15.50
2023-02-22T19:39:10.264Z,15.10
2023-02-22T19:41:39.365Z,13.40
2023-02-22T19:44:08.344Z,13.00
2023-02-22T19:46:37.850Z,16.23
2023-02-22T19:49:07.617Z,15.20
2023-02-22T19:51:36.010Z,14.67
2023-02-22T19:54:07.787Z,16.33
2023-02-22T19:56:37.283Z,19.83
2023-02-22T19:59:09.580Z,18.20
2023-02-22T20:01:38.657Z,18.17
2023-02-22T20:04:10.038Z,19.57
2023-02-22T20:06:40.342Z,18.10
2023-02-22T20:09:13.369Z,19.13
2023-02-22T20:11:41.714Z,20.43
2023-02-22T20:14:10.055Z,20.77
2023-02-22T20:16:38.514Z,19.20
2023-02-22T20:19:07.897Z,19.63
2023-02-22T20:21:37.153Z,24.93
2023-02-22T20:24:08.567Z,20.07
2023-02-22T20:26:39.914Z,18.93
2023-02-22T20:29:09.316Z,21.63
2023-02-22T20:31:39.280Z,17.73
2023-02-22T20:34:09.745Z,19.53
2023-02-22T20:36:39.813Z,18.87
2023-02-22T20:39:13.218Z,21.60
2023-02-22T20:41:44.401Z,20.20
2023-02-22T20:44:15.007Z,22.73
2023-02-22T20:46:44.518Z,19.93
2023-02-22T20:49:17.109Z,18.60
2023-02-22T20:51:46.493Z,20.10
2023-02-22T20:54:15.252Z,21.20
2023-02-22T20:56:46.630Z,18.70
2023-02-22T20:59:17.824Z,21.20
2023-02-22T21:01:47.517Z,18.60
2023-02-22T21:04:15.879Z,17.37
2023-02-22T21:06:44.631Z,20.67
2023-02-22T21:09:15.336Z,20.03
2023-02-22T21:11:45.638Z,23.20
2023-02-22T21:14:18.598Z,19.43
2023-02-22T21:16:48.636Z,19.57
2023-02-22T21:19:25.397Z,20.33
2023-02-22T21:21:55.783Z,23.13
2023-02-22T21:24:24.597Z,21.37
2023-02-22T21:26:55.747Z,20.83
2023-02-22T21:29:24.024Z,20.30
2023-02-22T21:31:52.457Z,22.87
2023-02-22T21:34:22.348Z,20.90
2023-02-22T21:36:52.539Z,20.10
2023-02-22T21:39:22.546Z,19.80
2023-02-22T21:41:53.220Z,25.13
2023-02-22T21:44:22.092Z,20.97
2023-02-22T21:46:50.519Z,21.83
2023-02-22T21:49:22.473Z,22.00
2023-02-22T21:51:52.545Z,22.83
2023-02-22T21:54:21.436Z,21.83
2023-02-22T21:56:50.313Z,21.53
2023-02-22T21:59:23.732Z,23.10
2023-02-22T22:01:55.801Z,19.03
2023-02-22T22:04:27.567Z,21.87
2023-02-22T22:06:57.732Z,21.23
2023-02-22T22:09:29.173Z,21.07
2023-02-22T22:11:59.518Z,22.70
2023-02-22T22:14:29.285Z,21.87
2023-02-22T22:16:59.420Z,20.70
2023-02-22T22:19:29.207Z,20.87
2023-02-22T22:21:58.188Z,21.00
2023-02-22T22:24:28.787Z,25.20
2023-02-22T22:27:03.548Z,20.00
2023-02-22T22:29:34.482Z,20.00
2023-02-22T22:32:03.270Z,22.20
2023-02-22T22:34:34.065Z,20.20
2023-02-22T22:37:03.022Z,22.33
2023-02-22T22:39:31.678Z,21.87
2023-02-22T22:42:00.081Z,21.27
2023-02-22T22:44:32.889Z,22.60
2023-02-22T22:47:02.835Z,23.07
2023-02-22T22:49:32.625Z,22.27
2023-02-22T22:52:02.245Z,21.50
2023-02-22T22:54:30.660Z,30.07
2023-02-22T22:56:58.913Z,23.90
2023-02-22T22:59:27.795Z,23.60
2023-02-22T23:01:56.639Z,22.37
2023-02-22T23:04:26.834Z,22.97
2023-02-22T23:06:55.752Z,25.77
2023-02-22T23:09:25.767Z,22.30
2023-02-22T23:11:56.368Z,21.73
2023-02-22T23:14:27.045Z,24.50
2023-02-22T23:17:00.209Z,22.80
2023-02-22T23:19:30.228Z,23.00
2023-02-22T23:21:59.149Z,23.77
2023-02-22T23:24:28.596Z,21.93
2023-02-22T23:27:00.106Z,24.30
2023-02-22T23:29:29.871Z,22.43
2023-02-22T23:31:58.758Z,24.33
2023-02-22T23:34:29.126Z,25.97
2023-02-22T23:36:57.463Z,25.20
2023-02-22T23:39:26.527Z,23.20
2023-02-22T23:41:56.199Z,23.57
2023-02-22T23:44:27.070Z,24.70
2023-02-22T23:46:56.012Z,24.50
2023-02-22T23:49:26.704Z,24.40
2023-02-22T23:51:56.636Z,22.33
2023-02-22T23:54:25.359Z,22.20
2023-02-22T23:56:56.907Z,23.30
2023-02-22T23:59:27.324Z,23.33
